Latest Weather Observations for Butlers Gorge

IDT60801

Issued at 3:05 pm EST Thursday 31 July 2014 (issued every 30 minutes, with the page automatically refreshed every 10 minutes)

About weather observations | Map of weather stations | Latest weather observations for TAS | Other Formats
Station Details ID: 096003 Name: BUTLERS GORGE Lat: -42.28 Lon: 146.28 Height: 667.0 m
Data from the previous 72 hours. | See also: Recent months at Butlers Gorge
Date/Time
EST
Temp
°C
App
Temp
°C
Dew
Point
Rel
Hum
%
Delta-T
°C
Wind Press
QNH
hPa
Press
MSL
hPa
Rain
since 9 am
mm
Dir
 
Spd
km/h
Gust
km/h
Spd
kts
Gust
kts
31/03:00pm 2.2 -1.7 0.9 91 0.5 WSW 11 20 6 11 - - 24.2
31/02:30pm 1.2 -0.7 0.5 95 0.3 ENE 0 6 0 3 - - 23.0
31/02:00pm 0.7 -2.4 0.1 96 0.2 WSW 6 9 3 5 - - 21.4
31/01:30pm 0.9 -2.2 0.3 96 0.2 WNW 6 9 3 5 - - 20.6
31/01:00pm 0.7 -2.4 0.1 96 0.2 WNW 6 9 3 5 - - 19.8
31/12:30pm 0.9 -2.2 0.2 95 0.3 NNW 6 9 3 5 - - 19.0
31/12:00pm 2.0 -2.0 0.8 92 0.5 W 11 15 6 8 - - 16.2
31/11:30am 3.0 0.3 2.7 98 0.1 NNW 6 9 3 5 - - 11.6
31/11:00am 2.2 0.5 1.8 97 0.2 CALM 0 4 0 2 - - 8.4
31/10:30am 1.9 0.1 1.5 97 0.2 CALM 0 0 0 0 - - 5.4
31/10:00am 1.5 -1.1 1.1 97 0.2 ENE 4 9 2 5 - - 4.6
31/09:30am 1.6 -0.2 1.0 96 0.2 CALM 0 0 0 0 - - 2.2
31/09:00am 1.8 -1.1 1.2 96 0.2 SW 6 9 3 5 - - 51.8
31/08:30am 2.0 -1.0 1.0 93 0.4 ENE 6 9 3 5 - - 50.2
31/08:00am 3.0 0.1 1.5 90 0.6 WNW 6 9 3 5 - - 48.4
31/07:30am 3.7 1.8 3.0 95 0.3 W 2 9 1 5 - - 46.2
31/07:00am 3.8 2.3 2.8 93 0.4 CALM 0 0 0 0 - - 45.6
31/06:30am 4.5 1.7 3.2 91 0.6 SSW 7 11 4 6 - - 45.2
31/06:00am 5.7 3.1 4.3 91 0.6 W 7 15 4 8 - - 43.8
31/05:30am 6.0 3.1 4.8 92 0.5 W 9 20 5 11 - - 42.4
31/05:00am 5.6 3.2 4.4 92 0.5 W 6 13 3 7 - - 41.2
31/04:30am 6.1 2.4 4.3 88 0.8 W 13 28 7 15 - - 40.6
31/04:00am 7.8 2.7 5.9 88 0.9 WNW 22 52 12 28 - - 37.8
31/03:30am 8.5 2.9 5.3 80 1.5 WNW 24 50 13 27 - - 35.6
31/03:00am 8.3 3.1 5.4 82 1.4 WNW 22 54 12 29 - - 35.0
31/02:30am 8.2 3.6 5.5 83 1.3 W 19 50 10 27 - - 34.2
31/02:00am 8.3 1.9 5.4 82 1.4 WNW 28 59 15 32 - - 33.6
31/01:32am 8.7 2.3 5.1 78 1.7 WNW 28 61 15 33 - - 33.0
31/01:30am 8.8 2.8 5.4 79 1.6 WNW 26 61 14 33 - - 32.8
31/01:09am 8.5 2.2 5.8 83 1.3 WNW 28 61 15 33 - - 32.6
31/01:00am 8.3 3.2 6.1 86 1.0 WNW 22 37 12 20 - - 32.4
31/12:30am 8.3 1.9 5.4 82 1.4 NW 28 67 15 36 - - 31.2
31/12:29am 8.2 1.9 5.5 83 1.3 NW 28 67 15 36 - - 31.2
31/12:00am 8.9 3.2 4.7 75 1.9 NW 24 65 13 35 - - 30.8
 
Date/Time
EST
Temp
°C
App
Temp
°C
Dew
Point
Rel
Hum
%
Delta-T
°C
Wind Press
QNH
hPa
Press
MSL
hPa
Rain
since 9 am
mm
Dir
 
Spd
km/h
Gust
km/h
Spd
kts
Gust
kts
30/11:30pm 8.3 1.0 4.7 78 1.7 WNW 32 52 17 28 - - 30.8
30/11:02pm 8.2 -1.1 5.0 80 1.5 NW 43 70 23 38 - - 30.6
30/11:00pm 7.8 2.9 4.9 82 1.3 WNW 20 65 11 35 - - 30.6
30/10:30pm 8.4 2.9 4.2 75 1.9 NW 22 44 12 24 - - 29.6
30/10:00pm 8.2 2.4 4.4 77 1.7 WNW 24 46 13 25 - - 29.6
30/09:30pm 9.0 2.4 4.0 71 2.3 WNW 28 59 15 32 - - 29.6
30/09:00pm 9.0 2.2 3.0 66 2.7 WNW 28 69 15 37 - - 29.6
30/08:30pm 9.1 1.6 3.3 67 2.6 WNW 32 61 17 33 - - 29.6
30/08:00pm 8.9 1.9 4.1 72 2.2 NW 30 72 16 39 - - 29.6
30/07:41pm 8.5 2.1 5.4 81 1.5 NW 28 57 15 31 - - 29.4
30/07:30pm 8.6 2.6 5.4 80 1.5 NW 26 52 14 28 - - 29.4
30/07:00pm 7.7 3.4 5.3 85 1.1 WNW 17 30 9 16 - - 29.0
30/06:39pm 8.0 1.6 5.1 82 1.3 WNW 28 57 15 31 - - 28.2
30/06:30pm 7.9 2.3 5.4 84 1.2 WNW 24 48 13 26 - - 28.2
30/06:00pm 7.4 1.8 5.2 86 1.0 WNW 24 61 13 33 - - 26.8
30/05:30pm 7.5 2.8 5.1 85 1.1 WNW 19 33 10 18 - - 25.2
30/05:00pm 7.6 1.1 4.7 82 1.3 WNW 28 63 15 34 - - 23.6
30/04:30pm 8.1 1.0 5.6 84 1.2 WNW 32 63 17 34 - - 22.6
30/04:05pm 8.2 1.9 5.7 84 1.2 WNW 28 56 15 30 - - 22.0
30/04:00pm 7.7 4.7 5.8 88 0.9 NW 11 24 6 13 - - 21.8
30/03:30pm 7.7 3.6 6.0 89 0.8 W 17 37 9 20 - - 20.6
30/03:00pm 8.1 2.9 5.6 84 1.2 WNW 22 41 12 22 - - 17.2
30/02:30pm 7.5 2.7 5.6 88 0.9 NW 20 33 11 18 - - 15.8
30/02:06pm 7.5 1.2 5.6 88 0.9 WNW 28 50 15 27 - - 15.0
30/02:00pm 7.5 1.9 5.3 86 1.0 WNW 24 50 13 27 - - 14.4
30/01:40pm 7.3 0.9 5.1 86 1.0 WNW 28 57 15 31 - - 13.4
30/01:30pm 7.3 2.5 5.4 88 0.9 WNW 20 37 11 20 - - 13.0
30/01:00pm 7.0 2.3 5.0 87 0.9 WNW 19 39 10 21 - - 11.4
30/12:30pm 6.5 0.8 4.7 88 0.8 NW 24 50 13 27 - - 9.8
30/12:26pm 6.5 -0.8 4.5 87 0.9 NNW 32 50 17 27 - - 9.4
30/12:00pm 6.6 1.7 4.3 85 1.0 NNW 19 28 10 15 - - 7.8
30/11:30am 6.9 1.9 4.7 86 1.0 WNW 20 43 11 23 - - 6.0
30/11:00am 6.9 1.9 4.6 85 1.0 WNW 20 46 11 25 - - 4.4
30/10:50am 6.9 0.4 4.9 87 0.9 WNW 28 46 15 25 - - 4.0
30/10:30am 6.4 1.0 4.6 88 0.8 WNW 22 59 12 32 - - 3.4
30/10:00am 6.6 1.2 4.4 86 1.0 WNW 22 43 12 23 - - 2.0
30/09:30am 6.0 0.2 4.2 88 0.8 WNW 24 52 13 28 - - 1.6
30/09:00am 6.1 -0.2 3.8 85 1.0 WNW 26 46 14 25 - - 37.2
30/08:46am 6.8 0.0 3.2 78 1.6 WNW 28 54 15 29 - - 37.0
30/08:30am 5.9 0.9 3.7 86 1.0 WNW 19 48 10 26 - - 37.0
30/08:00am 5.9 0.3 3.4 84 1.1 WNW 22 46 12 25 - - 36.0
30/07:30am 5.9 0.1 2.5 79 1.5 WNW 22 41 12 22 - - 35.4
30/07:00am 5.1 -0.2 2.8 85 1.0 NW 20 37 11 20 - - 35.2
30/06:30am 4.7 -1.2 1.6 80 1.3 WNW 22 54 12 29 - - 34.8
30/06:00am 4.3 0.1 1.7 83 1.1 NNW 13 35 7 19 - - 34.2
30/05:30am 5.3 0.5 0.1 69 2.1 WNW 15 30 8 16 - - 34.2
30/05:00am 5.1 0.2 -0.3 68 2.1 W 15 20 8 11 - - 34.2
30/04:30am 5.1 0.6 -0.3 68 2.1 W 13 35 7 19 - - 34.2
30/04:00am 4.9 -0.3 0.1 71 1.9 W 17 30 9 16 - - 34.2
30/03:30am 4.7 -0.2 1.7 81 1.2 W 17 35 9 19 - - 34.0
30/03:00am 5.0 -0.6 1.3 77 1.5 W 20 57 11 31 - - 33.6
30/02:30am 4.8 -0.6 1.5 79 1.4 W 19 37 10 20 - - 33.6
30/02:00am 4.7 -0.8 2.1 83 1.1 WSW 20 44 11 24 - - 33.2
30/01:46am 5.3 -2.1 1.6 77 1.5 WNW 30 50 16 27 - - 32.8
30/01:30am 5.2 -0.7 2.0 80 1.3 W 22 52 12 28 - - 32.4
30/01:11am 4.6 -2.3 2.3 85 1.0 WNW 28 54 15 29 - - 31.4
30/01:00am 5.0 -0.2 2.2 82 1.2 W 19 32 10 17 - - 30.6
30/12:30am 4.5 -1.4 2.0 84 1.0 W 22 46 12 25 - - 29.8
30/12:00am 5.5 0.3 2.7 82 1.2 W 19 37 10 20 - - 27.2
 
Date/Time
EST
Temp
°C
App
Temp
°C
Dew
Point
Rel
Hum
%
Delta-T
°C
Wind Press
QNH
hPa
Press
MSL
hPa
Rain
since 9 am
mm
Dir
 
Spd
km/h
Gust
km/h
Spd
kts
Gust
kts
29/11:30pm 6.6 1.1 1.7 71 2.1 WSW 20 39 11 21 - - 26.8
29/11:00pm 6.3 -0.8 1.4 71 2.0 W 28 48 15 26 - - 26.6
29/10:30pm 6.6 -0.9 0.9 67 2.4 W 30 70 16 38 - - 25.6
29/10:09pm 6.3 -2.1 1.4 71 2.0 WNW 35 69 19 37 - - 25.4
29/10:00pm 5.5 -0.7 2.0 78 1.5 WSW 24 43 13 23 - - 25.4
29/09:42pm 5.9 -1.3 0.7 69 2.1 W 28 59 15 32 - - 25.2
29/09:30pm 5.8 0.0 0.0 66 2.3 WNW 20 46 11 25 - - 25.2
29/09:05pm 5.6 -1.5 1.5 75 1.7 WNW 28 61 15 33 - - 25.2
29/09:00pm 5.2 -0.9 2.7 84 1.1 WNW 24 44 13 24 - - 25.2
29/08:30pm 7.0 1.0 1.3 67 2.4 WNW 22 43 12 23 - - 24.6
29/08:00pm 6.5 1.2 2.0 73 1.9 W 19 41 10 22 - - 24.6
29/07:30pm 7.2 0.1 1.3 66 2.5 W 28 57 15 31 - - 24.4
29/07:00pm 6.6 -0.4 1.7 71 2.1 WNW 28 69 15 37 - - 24.2
29/06:37pm 6.6 -0.9 0.9 67 2.4 W 30 54 16 29 - - 24.2
29/06:30pm 6.3 0.7 1.0 69 2.2 W 20 48 11 26 - - 24.2
29/06:10pm 6.4 -1.1 3.6 82 1.2 W 32 91 17 49 - - 24.2
29/06:09pm 6.4 -0.3 3.6 82 1.2 WSW 28 46 15 25 - - 24.2
29/06:00pm 7.5 1.1 3.0 73 2.0 WNW 26 65 14 35 - - 23.4
29/05:39pm 7.7 1.2 4.8 82 1.3 W 28 72 15 39 - - 23.2
29/05:30pm 7.2 2.3 5.3 88 0.9 WNW 20 41 11 22 - - 23.0
29/05:00pm 8.0 1.3 3.8 75 1.9 WNW 28 74 15 40 - - 21.8
29/04:30pm 8.4 1.1 4.4 76 1.8 WNW 32 69 17 37 - - 20.4
29/04:00pm 8.1 1.1 6.1 87 0.9 WNW 32 69 17 37 - - 20.0
29/03:30pm 8.3 2.1 6.3 87 1.0 WNW 28 52 15 28 - - 18.0
29/03:29pm 8.2 2.0 6.0 86 1.0 WNW 28 52 15 28 - - 18.0
29/03:00pm 7.8 2.3 5.9 88 0.9 NW 24 54 13 29 - - 16.4
29/02:41pm 7.8 1.5 5.8 87 0.9 NW 28 54 15 29 - - 15.6
29/02:30pm 7.4 1.4 5.4 87 0.9 NW 26 57 14 31 - - 15.4
29/02:00pm 6.7 0.6 4.9 88 0.8 WNW 26 59 14 32 - - 14.4
29/01:52pm 6.7 0.2 4.5 86 1.0 WNW 28 59 15 32 - - 13.8
29/01:30pm 6.3 1.5 4.8 90 0.7 WNW 19 39 10 21 - - 12.8
29/01:00pm 5.7 0.6 3.9 88 0.8 NW 20 35 11 19 - - 11.4
29/12:40pm 5.9 -0.9 3.1 82 1.2 WNW 28 48 15 26 - - 11.2
29/12:30pm 6.1 -0.4 2.6 78 1.5 WNW 26 54 14 29 - - 11.0
29/12:00pm 5.7 -1.6 2.5 80 1.4 WNW 30 61 16 33 - - 10.2
29/11:52am 5.5 -1.4 2.5 81 1.3 NW 28 61 15 33 - - 10.2
29/11:30am 5.0 0.2 2.7 85 1.0 WNW 17 57 9 31 - - 9.4
29/11:00am 5.2 0.1 3.1 86 0.9 WNW 19 33 10 18 - - 6.4
29/10:30am 6.5 1.0 4.0 84 1.1 WNW 22 46 12 25 - - 3.6
29/10:14am 7.0 0.4 4.0 81 1.3 WNW 28 63 15 34 - - 2.6
29/10:00am 7.2 2.1 4.0 80 1.4 NW 20 44 11 24 - - 2.2
29/09:30am 6.7 3.8 4.9 88 0.8 SW 9 15 5 8 - - 1.8
29/09:06am 7.6 1.1 4.9 83 1.2 WNW 28 61 15 33 - - 0.0
29/09:00am 7.7 1.9 4.5 80 1.5 NW 24 50 13 27 - - 14.2
29/08:43am 8.4 1.1 4.4 76 1.8 WNW 32 76 17 41 - - 13.8
29/08:30am 8.6 2.1 4.6 76 1.8 WNW 28 56 15 30 - - 13.8
29/08:00am 8.8 2.4 5.2 78 1.7 WNW 28 56 15 30 - - 13.8
29/07:44am 9.0 0.5 5.0 76 1.9 WNW 39 63 21 34 - - 13.8
29/07:42am 8.8 1.0 4.8 76 1.9 W 35 67 19 36 - - 13.8
29/07:30am 8.5 2.6 5.8 83 1.3 NW 26 48 14 26 - - 13.6
29/07:26am 8.4 2.1 5.9 84 1.2 NW 28 48 15 26 - - 13.6
29/07:00am 8.6 3.8 5.5 81 1.5 WNW 20 37 11 20 - - 12.8
29/06:30am 9.0 3.1 5.6 79 1.6 NW 26 41 14 22 - - 12.4
29/06:00am 7.3 3.4 5.4 88 0.9 NNW 15 37 8 20 - - 11.2
29/05:30am 6.9 3.4 5.4 90 0.7 N 13 24 7 13 - - 10.4
29/05:00am 6.9 3.7 5.2 89 0.8 N 11 20 6 11 - - 8.4
29/04:30am 7.1 4.3 5.1 87 0.9 NW 9 32 5 17 - - 7.2
29/04:00am 7.4 3.8 5.0 85 1.1 NW 13 22 7 12 - - 6.4
29/03:30am 7.5 3.4 4.5 81 1.4 NW 15 32 8 17 - - 5.8
29/03:00am 7.9 2.8 4.3 78 1.6 NW 20 37 11 20 - - 5.6
29/02:30am 7.5 3.4 4.3 80 1.4 WNW 15 35 8 19 - - 5.6
29/02:00am 7.0 2.6 4.8 86 1.0 WNW 17 35 9 19 - - 5.4
29/01:30am 7.0 3.0 4.8 86 1.0 WNW 15 26 8 14 - - 5.2
29/01:00am 6.9 2.9 4.7 86 1.0 NW 15 32 8 17 - - 4.6
29/12:30am 7.3 2.3 4.4 82 1.3 WNW 20 35 11 19 - - 4.0
29/12:00am 7.4 2.9 4.2 80 1.4 W 17 22 9 12 - - 3.6
 
Date/Time
EST
Temp
°C
App
Temp
°C
Dew
Point
Rel
Hum
%
Delta-T
°C
Wind Press
QNH
hPa
Press
MSL
hPa
Rain
since 9 am
mm
Dir
 
Spd
km/h
Gust
km/h
Spd
kts
Gust
kts
28/11:30pm 7.0 2.9 4.1 82 1.3 WNW 15 30 8 16 - - 3.6
28/11:00pm 7.0 2.8 3.6 79 1.5 WNW 15 26 8 14 - - 3.0
28/10:30pm 7.3 2.6 3.2 75 1.8 NW 17 35 9 19 - - 3.0
28/10:00pm 7.2 2.2 3.8 79 1.5 NW 19 33 10 18 - - 3.0
28/09:30pm 7.0 2.5 4.3 83 1.2 WNW 17 30 9 16 - - 3.0
28/09:00pm 7.0 3.2 3.8 80 1.4 WNW 13 28 7 15 - - 3.0
28/08:30pm 7.2 2.2 3.8 79 1.5 NW 19 35 10 19 - - 3.0
28/08:00pm 7.1 2.2 3.9 80 1.4 WNW 19 33 10 18 - - 3.0
28/07:30pm 6.7 2.5 3.7 81 1.3 NW 15 43 8 23 - - 3.0
28/07:00pm 6.7 3.0 4.7 87 0.9 W 13 28 7 15 - - 2.2
28/06:30pm 6.6 2.9 4.4 86 1.0 WNW 13 32 7 17 - - 1.0
28/06:00pm 6.8 2.7 4.3 84 1.1 NW 15 33 8 18 - - 0.6
28/05:30pm 6.8 1.6 3.6 80 1.4 NW 20 41 11 22 - - 0.4
28/05:00pm 7.0 1.7 3.1 76 1.7 NW 20 37 11 20 - - 0.2
28/04:30pm 8.0 3.5 2.3 67 2.5 NW 15 28 8 15 - - 0.0
28/04:00pm 8.0 3.6 2.7 69 2.3 WNW 15 32 8 17 - - 0.0
28/03:30pm 7.6 1.9 2.9 72 2.1 NW 22 37 12 20 - - 0.0

Other Formats:

Comma delimited format used in spreadsheet applications
http://www.bom.gov.au/fwo/IDT60801/IDT60801.94959.axf

JavaScript Object Notation format (JSON) in row-major order
http://www.bom.gov.au/fwo/IDT60801/IDT60801.94959.json